Hovedside
METAR-TAF:

METAR-TAF

Lufthavner :

Ghat, Libya

breddegrad: 25-08N, lengdegrad: 010-09E, høyde over havet: 699 m

METAR: fraværende

Tid: 06:00 (04:00 UTC)

Varsel

Denne rapporten ble laget for 5 timer og 0 minutter siden, klokken 23:00 UTC
Varsel gyldig fra 29. klokken 00 UTC til 29. klokken 24 UTC
Vind 2 kt fra skiftende retning
Sikt 10 km eller mer
ingen skyer under 1500 m og ingen bygeskyer

TAF: HLGT 282300Z 2900/2924 VRB02KT CAVOK

Værobservasjoner og værvarsel for over 4000 flyplasser (METAR- og TAF-rapporter).

Tilgjengelige stasjoner er representert av de røde og gule prikkene på kartet.

Hold musepekeren over prikken for å se navnet på stasjonen.

Klikk så for å se værobservasjoner og -varsler.

For å forandre kartet kan du klikke på den grønne knappen med svart kryss for å zoome inn, på den grønne knappen med strek for å zoome ut, eller på de grønne pilene for å se tilstøtende kart.


METAR-TAF: